Latest Weather Observations for Carnarvon

IDW60801

Issued at 9:35 am WST Sunday 21 September 2014 (issued every 30 minutes, with the page automatically refreshed every 10 minutes)

About weather observations | Map of weather stations | Latest weather observations for WA | Other Formats
Station Details ID: 006011 Name: CARNARVON AIRPORT Lat: -24.89 Lon: 113.67 Height: 4.0 m
Data from the previous 72 hours. | See also: Recent months at Carnarvon
Date/Time
WST
Temp
°C
App
Temp
°C
Dew
Point
Rel
Hum
%
Delta-T
°C
Wind Press
QNH
hPa
Press
MSL
hPa
Rain
since 9 am
mm
Dir
 
Spd
km/h
Gust
km/h
Spd
kts
Gust
kts
21/09:30am 25.0 20.0 18.0 65 4.4 NNW 41 54 22 29 1015.5 - 0.0
21/09:00am 24.8 20.2 17.9 65 4.3 NNW 39 46 21 25 1015.4 1015.4 0.0
21/08:30am 24.0 21.4 17.9 68 3.8 NNW 28 39 15 21 1015.4 - 0.0
21/08:00am 22.7 20.4 17.5 72 3.2 N 26 33 14 18 1015.3 - 0.0
21/07:30am 20.9 19.5 17.0 78 2.4 N 20 28 11 15 1015.1 - 0.0
21/07:00am 18.7 18.0 16.4 86 1.4 N 15 20 8 11 1014.9 - 0.0
21/06:30am 17.8 16.7 16.3 91 0.9 N 17 19 9 10 1014.6 - 0.0
21/06:00am 17.7 16.9 16.2 91 0.9 N 15 20 8 11 1014.3 1014.3 0.0
21/05:30am 18.2 16.7 16.4 89 1.1 N 19 24 10 13 1013.9 - 0.0
21/05:00am 18.1 16.5 16.4 90 1.0 N 20 24 11 13 1013.6 - 0.0
21/04:30am 18.1 17.0 16.3 89 1.1 N 17 24 9 13 1013.5 - 0.0
21/04:00am 18.2 17.1 16.4 89 1.1 N 17 20 9 11 1013.4 - 0.0
21/03:30am 17.9 16.7 16.0 89 1.1 N 17 20 9 11 1013.5 - 0.0
21/03:00am 17.8 16.9 15.8 88 1.2 N 15 19 8 10 1013.9 1013.9 0.0
21/02:30am 17.7 16.7 15.7 88 1.2 N 15 19 8 10 1014.0 - 0.0
21/02:00am 17.9 16.9 15.7 87 1.3 N 15 19 8 10 1014.3 - 0.0
21/01:30am 18.1 17.2 15.9 87 1.3 N 15 19 8 10 1014.6 - 0.0
21/01:00am 17.4 16.6 15.2 87 1.3 N 13 15 7 8 1014.9 - 0.0
21/12:30am 16.6 16.0 14.5 87 1.2 N 11 13 6 7 1015.0 - 0.0
21/12:00am 16.8 16.6 14.7 87 1.2 N 9 11 5 6 1014.9 1014.9 0.0
 
Date/Time
WST
Temp
°C
App
Temp
°C
Dew
Point
Rel
Hum
%
Delta-T
°C
Wind Press
QNH
hPa
Press
MSL
hPa
Rain
since 9 am
mm
Dir
 
Spd
km/h
Gust
km/h
Spd
kts
Gust
kts
20/11:30pm 17.4 17.0 15.3 87 1.2 NNE 11 11 6 6 1015.1 - 0.0
20/11:00pm 17.0 16.0 14.7 86 1.3 NNE 13 15 7 8 1015.2 - 0.0
20/10:30pm 17.1 17.2 14.5 85 1.5 NNE 7 9 4 5 1015.3 - 0.0
20/10:00pm 19.0 19.9 16.0 83 1.8 NNW 6 7 3 4 1015.7 - 0.0
20/09:30pm 20.2 21.1 16.5 79 2.2 WNW 7 9 4 5 1015.9 - 0.0
20/09:00pm 20.9 21.4 16.6 76 2.6 W 9 11 5 6 1016.1 1016.1 0.0
20/08:30pm 21.5 21.3 16.7 74 2.9 W 13 15 7 8 1016.0 - 0.0
20/08:00pm 21.8 21.6 16.7 73 3.1 W 13 17 7 9 1015.9 - 0.0
20/07:30pm 22.0 21.7 16.4 70 3.4 W 13 20 7 11 1015.5 - 0.0
20/07:00pm 22.2 21.9 16.4 69 3.5 W 13 20 7 11 1015.3 - 0.0
20/06:30pm 22.5 21.3 16.2 67 3.8 WSW 17 24 9 13 1014.9 - 0.0
20/06:00pm 23.1 21.9 16.0 64 4.3 W 17 24 9 13 1014.7 1014.7 0.0
20/05:30pm 23.5 22.1 16.6 65 4.2 WSW 19 26 10 14 1014.5 - 0.0
20/05:00pm 24.0 22.3 16.3 62 4.7 WSW 20 28 11 15 1014.3 - 0.0
20/04:30pm 24.4 22.4 16.4 61 4.9 WSW 22 32 12 17 1014.2 - 0.0
20/04:00pm 24.4 21.4 16.9 63 4.6 W 28 37 15 20 1014.2 - 0.0
20/03:30pm 25.3 21.5 16.7 59 5.3 W 32 41 17 22 1014.2 - 0.0
20/03:00pm 26.1 21.8 15.8 53 6.3 W 33 43 18 23 1013.9 1013.9 0.0
20/02:30pm 26.0 21.5 15.4 52 6.4 W 33 41 18 22 1013.8 - 0.0
20/02:00pm 28.5 24.9 9.9 31 10.4 WSW 19 28 10 15 1013.7 - 0.0
20/01:30pm 29.9 25.7 5.5 21 12.8 W 17 24 9 13 1013.8 - 0.0
20/01:00pm 29.4 24.5 4.1 20 12.9 WSW 19 24 10 13 1014.3 - 0.0
20/12:30pm 28.5 24.0 4.4 21 12.3 WSW 17 26 9 14 1014.7 - 0.0
20/12:00pm 28.5 24.2 5.3 23 12.0 WSW 17 22 9 12 1015.1 1015.1 0.0
20/11:30am 28.6 24.1 2.0 18 13.0 W 15 20 8 11 1015.4 - 0.0
20/11:00am 28.5 24.4 2.2 18 12.9 NW 13 17 7 9 1015.8 - 0.0
20/10:30am 27.4 23.8 4.9 23 11.5 NW 13 19 7 10 1016.0 - 0.0
20/10:00am 27.1 23.9 6.8 27 10.7 NNW 13 20 7 11 1016.1 - 0.0
20/09:30am 26.2 23.4 11.2 39 8.5 NNW 17 26 9 14 1016.4 - 0.0
20/09:00am 25.3 23.5 13.3 47 7.0 NNW 15 20 8 11 1016.3 1016.3 0.0
20/08:30am 22.9 22.1 16.1 65 4.1 N 15 19 8 10 1016.2 - 0.0
20/08:00am 20.6 21.2 18.5 88 1.3 N 13 17 7 9 1015.8 - 0.0
20/07:30am 18.6 20.0 17.8 95 0.5 N 7 9 4 5 1015.4 - 0.0
20/07:00am 16.4 16.7 15.9 97 0.3 N 9 11 5 6 1015.2 - 0.0
20/06:30am 15.7 15.3 15.2 97 0.3 NNW 11 13 6 7 1014.9 - 0.0
20/06:00am 14.0 13.7 13.3 96 0.4 NNW 7 9 4 5 1014.6 1014.6 0.0
20/05:30am 14.4 14.2 13.7 96 0.4 NW 7 7 4 4 1014.3 - 0.0
20/05:00am 15.2 15.5 14.9 98 0.2 NW 7 9 4 5 1014.1 - 0.0
20/04:30am 15.3 15.5 14.6 96 0.4 NNW 7 9 4 5 1014.2 - 0.0
20/04:00am 16.0 16.1 15.5 97 0.3 NNW 9 11 5 6 1014.3 - 0.0
20/03:30am 15.8 15.7 14.9 94 0.5 NNW 9 9 5 5 1014.4 - 0.0
20/03:00am 16.7 16.6 16.0 96 0.4 NW 11 13 6 7 1014.5 1014.5 0.0
20/02:30am 16.1 16.5 15.4 96 0.4 N 7 9 4 5 1014.6 - 0.0
20/02:00am 16.7 16.9 15.7 94 0.6 N 9 11 5 6 1015.0 - 0.0
20/01:30am 16.8 17.2 15.4 91 0.8 ENE 7 9 4 5 1015.2 - 0.0
20/01:00am 18.0 20.2 16.5 91 0.9 CALM 0 0 0 0 1015.3 - 0.0
20/12:30am 19.3 20.1 17.2 88 1.3 S 9 13 5 7 1015.2 - 0.0
20/12:00am 19.6 19.3 17.3 86 1.4 S 15 17 8 9 1015.2 1015.2 0.0
 
Date/Time
WST
Temp
°C
App
Temp
°C
Dew
Point
Rel
Hum
%
Delta-T
°C
Wind Press
QNH
hPa
Press
MSL
hPa
Rain
since 9 am
mm
Dir
 
Spd
km/h
Gust
km/h
Spd
kts
Gust
kts
19/11:30pm 19.9 20.0 17.4 85 1.5 S 13 15 7 8 1015.7 - 0.0
19/11:00pm 20.6 20.5 17.8 84 1.7 S 15 19 8 10 1016.3 - 0.0
19/10:30pm 21.3 20.7 18.4 83 1.8 S 19 22 10 12 1016.6 - 0.0
19/10:00pm 21.5 21.0 18.6 83 1.8 S 19 24 10 13 1016.6 - 0.0
19/09:30pm 21.6 21.1 18.7 83 1.8 S 19 24 10 13 1016.7 - 0.0
19/09:00pm 21.7 21.5 18.5 82 2.0 S 17 24 9 13 1016.5 1016.5 0.0
19/08:30pm 21.8 21.6 18.6 82 2.0 SSW 17 24 9 13 1016.4 - 0.0
19/08:00pm 22.1 21.3 18.4 79 2.3 SSW 20 28 11 15 1016.2 - 0.0
19/07:30pm 22.2 21.4 18.0 77 2.6 SSW 19 22 10 12 1015.6 - 0.0
19/07:00pm 22.3 21.3 16.7 70 3.4 SW 17 20 9 11 1015.5 - 0.0
19/06:30pm 22.4 21.1 16.8 70 3.4 SW 19 24 10 13 1015.1 - 0.0
19/06:00pm 22.9 21.2 17.2 70 3.5 SW 22 30 12 16 1014.8 1014.8 0.0
19/05:30pm 23.5 21.7 17.0 67 4.0 SSW 22 28 12 15 1014.8 - 0.0
19/05:00pm 23.9 21.6 17.5 67 4.0 SSW 26 32 14 17 1014.6 - 0.0
19/04:30pm 24.6 21.9 17.5 64 4.4 SSW 28 35 15 19 1014.7 - 0.0
19/04:00pm 24.9 21.8 16.6 60 5.1 SSW 28 33 15 18 1014.9 - 0.0
19/03:30pm 24.6 21.2 15.7 57 5.4 SSW 28 33 15 18 1014.9 - 0.0
19/03:00pm 24.2 20.9 16.9 63 4.5 SSW 30 35 16 19 1015.1 1015.1 0.0
19/02:30pm 25.1 21.8 17.0 60 5.0 SSW 30 35 16 19 1015.0 - 0.0
19/02:00pm 25.1 21.8 17.0 60 5.0 SSW 30 39 16 21 1015.4 - 0.0
19/01:30pm 24.8 21.3 16.5 60 5.1 SSW 30 35 16 19 1015.7 - 0.0
19/01:00pm 24.3 20.8 15.5 58 5.3 SSW 28 35 15 19 1016.1 - 0.0
19/12:30pm 24.7 21.0 16.0 58 5.3 SSW 30 39 16 21 1016.5 - 0.0
19/12:00pm 25.5 22.6 15.0 52 6.3 SSW 24 30 13 16 1016.9 1016.9 0.0
19/11:30am 27.6 25.5 11.0 35 9.4 ESE 13 20 7 11 1017.7 - 0.0
19/11:00am 27.1 23.1 6.8 27 10.7 ESE 17 24 9 13 1018.2 - 0.0
19/10:30am 25.4 21.6 9.0 35 8.9 SE 19 28 10 15 1018.7 - 0.0
19/10:00am 24.7 22.1 10.7 41 7.8 SSE 15 19 8 10 1019.1 - 0.0
19/09:30am 23.3 19.9 11.3 46 6.7 ESE 20 26 11 14 1019.5 - 0.0
19/09:00am 21.6 18.5 12.2 55 5.3 SE 20 26 11 14 1019.6 1019.6 0.0
19/08:30am 20.4 17.8 13.2 63 4.1 SE 19 26 10 14 1019.7 - 0.0
19/08:00am 19.1 15.6 13.3 69 3.3 SE 24 32 13 17 1019.8 - 0.0
19/07:30am 17.8 14.2 13.2 74 2.6 SSE 24 32 13 17 1019.6 - 0.0
19/07:00am 16.9 14.4 13.5 80 1.9 SSE 19 24 10 13 1019.3 - 0.0
19/06:30am 16.2 14.0 13.3 83 1.6 SSE 17 22 9 12 1019.0 - 0.0
19/06:00am 16.0 14.3 13.7 86 1.3 SSE 15 20 8 11 1018.8 1018.8 0.0
19/05:30am 15.2 14.3 13.6 90 0.9 SE 11 13 6 7 1018.6 - 0.0
19/05:00am 17.3 15.7 14.9 86 1.4 SSE 17 20 9 11 1018.3 - 0.0
19/04:30am 17.6 15.6 15.0 85 1.5 S 19 22 10 12 1018.1 - 0.0
19/04:00am 17.8 15.8 14.9 83 1.7 S 19 22 10 12 1017.9 - 0.0
19/03:30am 17.9 16.2 14.8 82 1.8 S 17 20 9 11 1017.9 - 0.0
19/03:00am 18.2 16.6 14.9 81 1.9 S 17 22 9 12 1018.1 1018.1 0.0
19/02:30am 18.2 16.1 14.7 80 2.0 S 19 22 10 12 1018.2 - 0.0
19/02:00am 18.0 16.1 14.2 78 2.2 S 17 20 9 11 1018.3 - 0.0
19/01:30am 18.0 16.1 14.3 79 2.1 SSE 17 20 9 11 1018.6 - 0.0
19/01:00am 18.6 16.9 14.8 78 2.2 S 17 22 9 12 1018.7 - 0.0
19/12:30am 18.8 16.6 14.5 76 2.5 S 19 26 10 14 1019.1 - 0.0
19/12:00am 18.8 16.3 14.1 74 2.7 S 20 24 11 13 1019.2 1019.2 0.0
 
Date/Time
WST
Temp
°C
App
Temp
°C
Dew
Point
Rel
Hum
%
Delta-T
°C
Wind Press
QNH
hPa
Press
MSL
hPa
Rain
since 9 am
mm
Dir
 
Spd
km/h
Gust
km/h
Spd
kts
Gust
kts
18/11:30pm 19.0 16.4 13.9 72 2.9 S 20 28 11 15 1019.4 - 0.0
18/11:00pm 19.4 16.1 14.0 71 3.1 S 24 33 13 18 1019.6 - 0.0
18/10:30pm 19.8 16.3 14.4 71 3.1 S 26 35 14 19 1019.9 - 0.0
18/10:00pm 20.1 16.6 14.4 69 3.3 S 26 33 14 18 1019.9 - 0.0
18/09:30pm 20.2 16.6 14.3 69 3.4 S 26 35 14 19 1019.9 - 0.0
18/09:00pm 20.5 16.6 14.5 68 3.5 S 28 39 15 21 1019.8 1019.8 0.0
18/08:30pm 20.7 16.8 14.3 66 3.7 S 28 37 15 20 1019.6 - 0.0
18/08:00pm 20.8 17.0 14.6 67 3.6 S 28 41 15 22 1019.2 - 0.0
18/07:30pm 21.0 17.2 14.7 67 3.7 SSW 28 39 15 21 1018.9 - 0.0
18/07:00pm 21.2 17.4 14.7 66 3.8 SSW 28 37 15 20 1018.7 - 0.0
18/06:30pm 21.6 18.0 15.2 67 3.8 SSW 28 35 15 19 1018.3 - 0.0
18/06:00pm 22.1 17.6 15.0 64 4.2 SSW 32 37 17 20 1018.0 1018.0 0.0
18/05:30pm 22.9 20.0 15.0 61 4.7 SSW 24 33 13 18 1017.6 - 0.0
18/05:00pm 23.4 21.0 16.3 64 4.3 SW 24 32 13 17 1017.5 - 0.0
18/04:30pm 23.3 19.7 15.3 60 4.8 SW 28 37 15 20 1017.3 - 0.0
18/04:00pm 23.9 20.2 15.0 57 5.3 SW 28 35 15 19 1017.1 - 0.0
18/03:30pm 23.6 20.6 14.8 57 5.2 SW 24 32 13 17 1017.0 - 0.0
18/03:00pm 24.4 20.4 13.0 49 6.6 SW 26 32 14 17 1016.8 1016.8 0.0
18/02:30pm 23.8 20.3 13.5 52 6.0 SW 24 32 13 17 1016.8 - 0.0
18/02:00pm 24.4 21.3 14.4 53 5.9 SSW 24 32 13 17 1017.0 - 0.0
18/01:30pm 23.6 20.9 14.6 57 5.3 SSW 22 30 12 16 1017.3 - 0.0
18/01:00pm 23.9 20.8 14.6 56 5.5 SSW 24 30 13 16 1017.6 - 0.0
18/12:30pm 23.7 21.1 14.8 57 5.3 SSW 22 30 12 16 1017.8 - 0.0
18/12:00pm 24.0 20.5 13.5 52 6.1 SSW 24 33 13 18 1018.3 1018.3 0.0
18/11:30am 23.3 19.5 14.7 58 5.1 SSW 28 33 15 18 1018.6 - 0.0
18/11:00am 23.1 19.6 14.6 58 5.0 SSW 26 30 14 16 1018.9 - 0.0
18/10:30am 22.5 19.5 14.9 62 4.5 SSW 24 32 13 17 1018.8 - 0.0
18/10:00am 22.7 19.6 14.5 60 4.8 S 24 28 13 15 1019.0 - 0.0

Other Formats:

Comma delimited format used in spreadsheet applications
http://www.bom.gov.au/fwo/IDW60801/IDW60801.94300.axf

JavaScript Object Notation format (JSON) in row-major order
http://www.bom.gov.au/fwo/IDW60801/IDW60801.94300.json